Bao An Cheng 69 — BVBD5 — position and weather

sailwx.info

Track history (hours):
 
Tides and Currents Weather Stations Pressure Air Temp Water Temp Dewpoint Dewpoint Depression Visibility Wind Speed Wind Dir Waves Ship Positions

Bao An Cheng 69

Last reported at 2016-Aug-24 04:33 UTC. Time now 2016-Aug-24 06:48 UTC.
Position N 24°49' E 118°43'.

Length 121 m; draft 4.8 m.

Type: Cargo ship. MMSI: 412703090.

Date/timePositionNaut miles runAvg speedWind from/ knotsBaromVisibWave heightAir tempDewpointWater temp
2016-Aug-24 04:33N 24°49' E 118°43'0 0.1
2016-Aug-24 03:33N 24°49' E 118°43'0 0.0
2016-Aug-24 01:27N 24°49' E 118°43'0 0.0
2016-Aug-24 00:21N 24°49' E 118°43'0 0.0
2016-Aug-23 23:33N 24°49' E 118°43'0 0.0
2016-Aug-23 21:27N 24°49' E 118°43'0 0.0
2016-Aug-23 19:20N 24°49' E 118°43'0 0.0
2016-Aug-23 18:32N 24°49' E 118°43'0 0.0
2016-Aug-23 17:32N 24°49' E 118°43'0 0.5
2016-Aug-23 16:33N 24°49' E 118°43'4 1.5
2016-Aug-23 13:33N 24°47' E 118°48'0 0.0
2016-Aug-23 09:21N 24°47' E 118°48'0 0.0
2016-Aug-23 08:33N 24°47' E 118°48'0 0.1
2016-Aug-23 06:11N 24°47' E 118°48'0 0.3
2016-Aug-23 05:32N 24°47' E 118°48'9 9.0
2016-Aug-23 04:32N 24°38' E 118°45'1010.0
2016-Aug-23 03:33N 24°30' E 118°39'1310.3
2016-Aug-23 02:20N 24°21' E 118°30'810.2
2016-Aug-23 01:32N 24°15' E 118°24'9 9.5
2016-Aug-23 00:33N 24°08' E 118°17'13 9.2
2016-Aug-22 23:09N 23°60' E 118°06'6 8.6
2016-Aug-22 22:24N 23°56' E 118°01'69 9.6
2016-Aug-22 15:11N 23°18' E 116°57'6 9.8
2016-Aug-22 14:33N 23°17' E 116°50'8 7.7
2016-Aug-22 13:34N 23°21' E 116°43'0 0.0
2016-Aug-22 11:32N 23°21' E 116°43'0 0.0
2016-Aug-22 10:32N 23°21' E 116°43'0 0.0
2016-Aug-22 09:33N 23°21' E 116°43'0 0.0
2016-Aug-22 08:30N 23°21' E 116°43'0 0.0
2016-Aug-22 07:30N 23°21' E 116°43'0 0.0
2016-Aug-22 05:30N 23°21' E 116°43'0 0.0
2016-Aug-22 03:33N 23°21' E 116°43'0 0.0
2016-Aug-22 02:30N 23°21' E 116°43'0 0.0
2016-Aug-22 01:29N 23°21' E 116°43'0 0.0
2016-Aug-22 00:29N 23°21' E 116°43'2 1.8
2016-Aug-21 23:34N 23°20' E 116°45'6 5.9
2016-Aug-21 22:33N 23°16' E 116°50'1 0.2
2016-Aug-21 16:22N 23°17' E 116°51'0 0.0
2016-Aug-21 13:32N 23°17' E 116°51'48 9.0
2016-Aug-21 08:17N 23°39' E 117°37'21 9.7
2016-Aug-21 06:04N 23°52' E 117°56'6 8.8
2016-Aug-21 05:24N 23°56' E 118°01'8 8.5
2016-Aug-21 04:31N 24°01' E 118°07'8 7.8
2016-Aug-21 03:32N 24°05' E 118°14'8 7.9
2016-Aug-21 02:33N 24°11' E 118°20'8 7.8
2016-Aug-21 01:32N 24°16' E 118°26'10 7.4
2016-Aug-21 00:09N 24°24' E 118°33'6 7.5
2016-Aug-20 23:24N 24°28' E 118°38'7 7.6
2016-Aug-20 22:31N 24°33' E 118°43'8 8.3
2016-Aug-20 21:34N 24°40' E 118°46'8 8.1
2016-Aug-20 20:33N 24°49' E 118°46'2 2.2
2016-Aug-20 19:24N 24°49' E 118°43'0 0.0
2016-Aug-20 18:30N 24°49' E 118°43'0 0.0
2016-Aug-20 17:30N 24°49' E 118°43'0 0.0
2016-Aug-20 16:27N 24°49' E 118°43'0 0.0
2016-Aug-20 15:33N 24°49' E 118°43'0 0.0
2016-Aug-20 14:27N 24°49' E 118°43'0 0.0
2016-Aug-20 13:18N 24°49' E 118°43'0 0.0
2016-Aug-20 11:30N 24°49' E 118°43'0 0.0
2016-Aug-20 10:33N 24°49' E 118°43'0 0.0
2016-Aug-20 08:24N 24°49' E 118°43'0 0.0
2016-Aug-20 07:33N 24°49' E 118°43'0 0.0
2016-Aug-20 06:18N 24°49' E 118°43'0 0.0
2016-Aug-20 05:24N 24°49' E 118°43'0 0.3
2016-Aug-20 04:10N 24°49' E 118°43'4 6.2
2016-Aug-20 03:33N 24°48' E 118°47'1 0.3
2016-Aug-20 01:32N 24°48' E 118°48'0 0.0
2016-Aug-20 00:33N 24°48' E 118°48'0 0.1
2016-Aug-19 23:31N 24°48' E 118°48'6 6.5
2016-Aug-19 22:33N 24°42' E 118°47'10 9.8
2016-Aug-19 21:32N 24°33' E 118°42'1010.0
2016-Aug-19 20:33N 24°25' E 118°35'9 8.8
2016-Aug-19 19:32N 24°19' E 118°28'8 8.1
2016-Aug-19 18:30N 24°13' E 118°22'8 8.3
2016-Aug-19 17:33N 24°07' E 118°16'11 8.8
2016-Aug-19 16:20N 24°00' E 118°07'2110.3
2016-Aug-19 14:16N 23°47' E 117°49'811.2
2016-Aug-19 13:33N 23°43' E 117°42'49 9.0
2016-Aug-19 08:07N 23°18' E 116°55'5 8.3
2016-Aug-19 07:33N 23°16' E 116°51'8 7.6
2016-Aug-19 06:33N 23°21' E 116°44'0 0.4
2016-Aug-19 05:31N 23°21' E 116°44'0 0.0
2016-Aug-19 04:31N 23°21' E 116°44'0 0.0
2016-Aug-19 03:31N 23°21' E 116°44'0 0.0
2016-Aug-19 02:32N 23°21' E 116°44'0 0.0
2016-Aug-19 01:32N 23°21' E 116°44'0 0.0
2016-Aug-19 00:32N 23°21' E 116°44'0 0.0
2016-Aug-18 23:32N 23°21' E 116°44'0 0.0
2016-Aug-18 22:32N 23°21' E 116°44'0 0.0
2016-Aug-18 21:32N 23°21' E 116°44'0 0.0
2016-Aug-18 20:26N 23°21' E 116°44'0 0.0
2016-Aug-18 19:32N 23°21' E 116°44'0 0.1
2016-Aug-18 18:32N 23°21' E 116°44'0 0.0
2016-Aug-18 17:20N 23°21' E 116°44'0 0.0
2016-Aug-18 16:32N 23°21' E 116°44'0 0.0
2016-Aug-18 15:32N 23°21' E 116°44'0 0.0
2016-Aug-18 14:29N 23°21' E 116°44'3 3.2
2016-Aug-18 13:33N 23°19' E 116°46'5 4.4
2016-Aug-18 12:24N 23°16' E 116°50'0 0.0
2016-Aug-18 11:30N 23°16' E 116°50'0 0.0
2016-Aug-18 10:34N 23°16' E 116°50'0 0.0
2016-Aug-18 09:30N 23°16' E 116°50'0 0.1
2016-Aug-18 08:33N 23°16' E 116°50'0 0.0
2016-Aug-18 07:28N 23°16' E 116°50'1 0.6
2016-Aug-18 06:33N 23°16' E 116°51'8 8.1
2016-Aug-18 05:30N 23°20' E 116°59'35 6.7
2016-Aug-18 00:15N 23°37' E 117°33'4 6.1
2016-Aug-17 23:33N 23°39' E 117°37'7 6.7
2016-Aug-17 22:33N 23°43' E 117°42'7 7.2
2016-Aug-17 21:33N 23°48' E 117°49'9 7.9
2016-Aug-17 20:27N 23°53' E 117°56'9 8.1
2016-Aug-17 19:21N 23°58' E 118°04'8 8.3
2016-Aug-17 18:19N 24°03' E 118°11'7 8.2
2016-Aug-17 17:31N 24°08' E 118°17'8 8.2
2016-Aug-17 16:31N 24°14' E 118°23'24 8.0
2016-Aug-17 13:33N 24°31' E 118°41'7 7.0
2016-Aug-17 12:32N 24°37' E 118°45'7 7.2
2016-Aug-17 11:33N 24°44' E 118°48'6 5.9
2016-Aug-17 10:33N 24°49' E 118°45'2 1.7
2016-Aug-17 09:33N 24°49' E 118°43'0 0.0
2016-Aug-17 08:23N 24°49' E 118°43'0 0.0
2016-Aug-17 07:29N 24°49' E 118°43'0 0.0
2016-Aug-17 06:08N 24°49' E 118°43'0 0.0
2016-Aug-17 05:29N 24°49' E 118°43'0 0.0
2016-Aug-17 04:22N 24°49' E 118°43'0 0.0
2016-Aug-17 03:31N 24°49' E 118°43'0 0.0
2016-Aug-17 02:31N 24°49' E 118°43'0 0.0
2016-Aug-17 01:31N 24°49' E 118°43'0 0.0
2016-Aug-17 00:19N 24°49' E 118°43'0 0.0
2016-Aug-16 23:25N 24°49' E 118°43'0 0.0
2016-Aug-16 21:31N 24°49' E 118°43'0 0.0
2016-Aug-16 20:22N 24°49' E 118°43'0 0.0
2016-Aug-16 19:22N 24°49' E 118°43'0 0.0
2016-Aug-16 18:22N 24°49' E 118°43'0 0.2
2016-Aug-16 17:33N 24°49' E 118°43'6 5.9
2016-Aug-16 16:33N 24°45' E 118°48'9 8.4
2016-Aug-16 15:31N 24°37' E 118°45'34 8.5
2016-Aug-16 11:28N 24°14' E 118°17'9 9.4
2016-Aug-16 10:33N 24°08' E 118°10'9 9.1
2016-Aug-16 09:33N 24°01' E 118°03'75 8.1
2016-Aug-16 00:20N 23°18' E 116°56'7 8.2
2016-Aug-15 23:31N 23°16' E 116°49'7 6.6
2016-Aug-15 22:28N 23°21' E 116°44'0 0.0
2016-Aug-15 20:20N 23°21' E 116°44'0 0.0
2016-Aug-15 19:24N 23°21' E 116°44'0 0.0
2016-Aug-15 07:24N 23°21' E 116°44'0 0.0
2016-Aug-15 04:17N 23°21' E 116°44'3 3.8
2016-Aug-15 03:33N 23°19' E 116°46'5 4.8
2016-Aug-15 02:32N 23°16' E 116°50'0 0.0
2016-Aug-15 01:05N 23°16' E 116°50'0 0.0
2016-Aug-14 20:23N 23°16' E 116°50'0 0.0
2016-Aug-14 17:09N 23°16' E 116°50'2 2.6
2016-Aug-14 16:28N 23°17' E 116°52'68 7.5
2016-Aug-14 07:22N 23°52' E 117°55'6 7.9
2016-Aug-14 06:32N 23°56' E 118°01'  
Track history (hours):
 
Tides and Currents Weather Stations Pressure Air Temp Water Temp Dewpoint Dewpoint Depression Visibility Wind Speed Wind Dir Waves Ship Positions

Bao An Cheng 69

Last reported at 2016-Aug-24 04:33 UTC. Time now 2016-Aug-24 06:48 UTC.
Position N 24°49' E 118°43'.

Length 121 m; draft 4.8 m.

Type: Cargo ship. MMSI: 412703090.

Date/timePositionNaut miles runAvg speedWind from/ knotsBaromVisibWave heightAir tempDewpointWater temp
2016-Aug-24 04:33N 24°49' E 118°43'0 0.1
2016-Aug-24 03:33N 24°49' E 118°43'0 0.0
2016-Aug-24 01:27N 24°49' E 118°43'0 0.0
2016-Aug-24 00:21N 24°49' E 118°43'0 0.0
2016-Aug-23 23:33N 24°49' E 118°43'0 0.0
2016-Aug-23 21:27N 24°49' E 118°43'0 0.0
2016-Aug-23 19:20N 24°49' E 118°43'0 0.0
2016-Aug-23 18:32N 24°49' E 118°43'0 0.0
2016-Aug-23 17:32N 24°49' E 118°43'0 0.5
2016-Aug-23 16:33N 24°49' E 118°43'4 1.5
2016-Aug-23 13:33N 24°47' E 118°48'0 0.0
2016-Aug-23 09:21N 24°47' E 118°48'0 0.0
2016-Aug-23 08:33N 24°47' E 118°48'0 0.1
2016-Aug-23 06:11N 24°47' E 118°48'0 0.3
2016-Aug-23 05:32N 24°47' E 118°48'9 9.0
2016-Aug-23 04:32N 24°38' E 118°45'1010.0
2016-Aug-23 03:33N 24°30' E 118°39'1310.3
2016-Aug-23 02:20N 24°21' E 118°30'810.2
2016-Aug-23 01:32N 24°15' E 118°24'9 9.5
2016-Aug-23 00:33N 24°08' E 118°17'13 9.2
2016-Aug-22 23:09N 23°60' E 118°06'6 8.6
2016-Aug-22 22:24N 23°56' E 118°01'69 9.6
2016-Aug-22 15:11N 23°18' E 116°57'6 9.8
2016-Aug-22 14:33N 23°17' E 116°50'8 7.7
2016-Aug-22 13:34N 23°21' E 116°43'0 0.0
2016-Aug-22 11:32N 23°21' E 116°43'0 0.0
2016-Aug-22 10:32N 23°21' E 116°43'0 0.0
2016-Aug-22 09:33N 23°21' E 116°43'0 0.0
2016-Aug-22 08:30N 23°21' E 116°43'0 0.0
2016-Aug-22 07:30N 23°21' E 116°43'0 0.0
2016-Aug-22 05:30N 23°21' E 116°43'0 0.0
2016-Aug-22 03:33N 23°21' E 116°43'0 0.0
2016-Aug-22 02:30N 23°21' E 116°43'0 0.0
2016-Aug-22 01:29N 23°21' E 116°43'0 0.0
2016-Aug-22 00:29N 23°21' E 116°43'2 1.8
2016-Aug-21 23:34N 23°20' E 116°45'6 5.9
2016-Aug-21 22:33N 23°16' E 116°50'1 0.2
2016-Aug-21 16:22N 23°17' E 116°51'0 0.0
2016-Aug-21 13:32N 23°17' E 116°51'48 9.0
2016-Aug-21 08:17N 23°39' E 117°37'21 9.7
2016-Aug-21 06:04N 23°52' E 117°56'6 8.8
2016-Aug-21 05:24N 23°56' E 118°01'8 8.5
2016-Aug-21 04:31N 24°01' E 118°07'8 7.8
2016-Aug-21 03:32N 24°05' E 118°14'8 7.9
2016-Aug-21 02:33N 24°11' E 118°20'8 7.8
2016-Aug-21 01:32N 24°16' E 118°26'10 7.4
2016-Aug-21 00:09N 24°24' E 118°33'6 7.5
2016-Aug-20 23:24N 24°28' E 118°38'7 7.6
2016-Aug-20 22:31N 24°33' E 118°43'8 8.3
2016-Aug-20 21:34N 24°40' E 118°46'8 8.1
2016-Aug-20 20:33N 24°49' E 118°46'2 2.2
2016-Aug-20 19:24N 24°49' E 118°43'0 0.0
2016-Aug-20 18:30N 24°49' E 118°43'0 0.0
2016-Aug-20 17:30N 24°49' E 118°43'0 0.0
2016-Aug-20 16:27N 24°49' E 118°43'0 0.0
2016-Aug-20 15:33N 24°49' E 118°43'0 0.0
2016-Aug-20 14:27N 24°49' E 118°43'0 0.0
2016-Aug-20 13:18N 24°49' E 118°43'0 0.0
2016-Aug-20 11:30N 24°49' E 118°43'0 0.0
2016-Aug-20 10:33N 24°49' E 118°43'0 0.0
2016-Aug-20 08:24N 24°49' E 118°43'0 0.0
2016-Aug-20 07:33N 24°49' E 118°43'0 0.0
2016-Aug-20 06:18N 24°49' E 118°43'0 0.0
2016-Aug-20 05:24N 24°49' E 118°43'0 0.3
2016-Aug-20 04:10N 24°49' E 118°43'4 6.2
2016-Aug-20 03:33N 24°48' E 118°47'1 0.3
2016-Aug-20 01:32N 24°48' E 118°48'0 0.0
2016-Aug-20 00:33N 24°48' E 118°48'0 0.1
2016-Aug-19 23:31N 24°48' E 118°48'6 6.5
2016-Aug-19 22:33N 24°42' E 118°47'10 9.8
2016-Aug-19 21:32N 24°33' E 118°42'1010.0
2016-Aug-19 20:33N 24°25' E 118°35'9 8.8
2016-Aug-19 19:32N 24°19' E 118°28'8 8.1
2016-Aug-19 18:30N 24°13' E 118°22'8 8.3
2016-Aug-19 17:33N 24°07' E 118°16'11 8.8
2016-Aug-19 16:20N 24°00' E 118°07'2110.3
2016-Aug-19 14:16N 23°47' E 117°49'811.2
2016-Aug-19 13:33N 23°43' E 117°42'49 9.0
2016-Aug-19 08:07N 23°18' E 116°55'5 8.3
2016-Aug-19 07:33N 23°16' E 116°51'8 7.6
2016-Aug-19 06:33N 23°21' E 116°44'0 0.4
2016-Aug-19 05:31N 23°21' E 116°44'0 0.0
2016-Aug-19 04:31N 23°21' E 116°44'0 0.0
2016-Aug-19 03:31N 23°21' E 116°44'0 0.0
2016-Aug-19 02:32N 23°21' E 116°44'0 0.0
2016-Aug-19 01:32N 23°21' E 116°44'0 0.0
2016-Aug-19 00:32N 23°21' E 116°44'0 0.0
2016-Aug-18 23:32N 23°21' E 116°44'0 0.0
2016-Aug-18 22:32N 23°21' E 116°44'0 0.0
2016-Aug-18 21:32N 23°21' E 116°44'0 0.0
2016-Aug-18 20:26N 23°21' E 116°44'0 0.0
2016-Aug-18 19:32N 23°21' E 116°44'0 0.1
2016-Aug-18 18:32N 23°21' E 116°44'0 0.0
2016-Aug-18 17:20N 23°21' E 116°44'0 0.0
2016-Aug-18 16:32N 23°21' E 116°44'0 0.0
2016-Aug-18 15:32N 23°21' E 116°44'0 0.0
2016-Aug-18 14:29N 23°21' E 116°44'3 3.2
2016-Aug-18 13:33N 23°19' E 116°46'5 4.4
2016-Aug-18 12:24N 23°16' E 116°50'0 0.0
2016-Aug-18 11:30N 23°16' E 116°50'0 0.0
2016-Aug-18 10:34N 23°16' E 116°50'0 0.0
2016-Aug-18 09:30N 23°16' E 116°50'0 0.1
2016-Aug-18 08:33N 23°16' E 116°50'0 0.0
2016-Aug-18 07:28N 23°16' E 116°50'1 0.6
2016-Aug-18 06:33N 23°16' E 116°51'8 8.1
2016-Aug-18 05:30N 23°20' E 116°59'35 6.7
2016-Aug-18 00:15N 23°37' E 117°33'4 6.1
2016-Aug-17 23:33N 23°39' E 117°37'7 6.7
2016-Aug-17 22:33N 23°43' E 117°42'7 7.2
2016-Aug-17 21:33N 23°48' E 117°49'9 7.9
2016-Aug-17 20:27N 23°53' E 117°56'9 8.1
2016-Aug-17 19:21N 23°58' E 118°04'8 8.3
2016-Aug-17 18:19N 24°03' E 118°11'7 8.2
2016-Aug-17 17:31N 24°08' E 118°17'8 8.2
2016-Aug-17 16:31N 24°14' E 118°23'24 8.0
2016-Aug-17 13:33N 24°31' E 118°41'7 7.0
2016-Aug-17 12:32N 24°37' E 118°45'7 7.2
2016-Aug-17 11:33N 24°44' E 118°48'6 5.9
2016-Aug-17 10:33N 24°49' E 118°45'2 1.7
2016-Aug-17 09:33N 24°49' E 118°43'0 0.0
2016-Aug-17 08:23N 24°49' E 118°43'0 0.0
2016-Aug-17 07:29N 24°49' E 118°43'0 0.0
2016-Aug-17 06:08N 24°49' E 118°43'0 0.0
2016-Aug-17 05:29N 24°49' E 118°43'0 0.0
2016-Aug-17 04:22N 24°49' E 118°43'0 0.0
2016-Aug-17 03:31N 24°49' E 118°43'0 0.0
2016-Aug-17 02:31N 24°49' E 118°43'0 0.0
2016-Aug-17 01:31N 24°49' E 118°43'0 0.0
2016-Aug-17 00:19N 24°49' E 118°43'0 0.0
2016-Aug-16 23:25N 24°49' E 118°43'0 0.0
2016-Aug-16 21:31N 24°49' E 118°43'0 0.0
2016-Aug-16 20:22N 24°49' E 118°43'0 0.0
2016-Aug-16 19:22N 24°49' E 118°43'0 0.0
2016-Aug-16 18:22N 24°49' E 118°43'0 0.2
2016-Aug-16 17:33N 24°49' E 118°43'6 5.9
2016-Aug-16 16:33N 24°45' E 118°48'9 8.4
2016-Aug-16 15:31N 24°37' E 118°45'34 8.5
2016-Aug-16 11:28N 24°14' E 118°17'9 9.4
2016-Aug-16 10:33N 24°08' E 118°10'9 9.1
2016-Aug-16 09:33N 24°01' E 118°03'75 8.1
2016-Aug-16 00:20N 23°18' E 116°56'7 8.2
2016-Aug-15 23:31N 23°16' E 116°49'7 6.6
2016-Aug-15 22:28N 23°21' E 116°44'0 0.0
2016-Aug-15 20:20N 23°21' E 116°44'0 0.0
2016-Aug-15 19:24N 23°21' E 116°44'0 0.0
2016-Aug-15 07:24N 23°21' E 116°44'0 0.0
2016-Aug-15 04:17N 23°21' E 116°44'3 3.8
2016-Aug-15 03:33N 23°19' E 116°46'5 4.8
2016-Aug-15 02:32N 23°16' E 116°50'0 0.0
2016-Aug-15 01:05N 23°16' E 116°50'0 0.0
2016-Aug-14 20:23N 23°16' E 116°50'0 0.0
2016-Aug-14 17:09N 23°16' E 116°50'2 2.6
2016-Aug-14 16:28N 23°17' E 116°52'68 7.5
2016-Aug-14 07:22N 23°52' E 117°55'6 7.9
2016-Aug-14 06:32N 23°56' E 118°01'  

Dump ship's entire track history